sensor_id;sensor_type;location;lat;lon;timestamp;temperature;humidity
2158;DHT22;41972;48.774;9.282;2023-03-23T00:00:53;12.40;76.40
2158;DHT22;41972;48.774;9.282;2023-03-23T00:03:20;12.40;73.40
2158;DHT22;41972;48.774;9.282;2023-03-23T00:05:47;12.50;74.90
2158;DHT22;41972;48.774;9.282;2023-03-23T00:08:19;12.50;73.60
2158;DHT22;41972;48.774;9.282;2023-03-23T00:10:49;12.40;73.70
2158;DHT22;41972;48.774;9.282;2023-03-23T00:13:15;12.40;71.70
2158;DHT22;41972;48.774;9.282;2023-03-23T00:15:45;12.70;65.40
2158;DHT22;41972;48.774;9.282;2023-03-23T00:18:10;12.70;65.70
2158;DHT22;41972;48.774;9.282;2023-03-23T00:20:46;12.80;62.40
2158;DHT22;41972;48.774;9.282;2023-03-23T00:23:15;13.00;61.90
2158;DHT22;41972;48.774;9.282;2023-03-23T00:25:45;13.00;63.00
2158;DHT22;41972;48.774;9.282;2023-03-23T00:28:11;13.00;62.90
2158;DHT22;41972;48.774;9.282;2023-03-23T00:30:38;13.10;61.60
2158;DHT22;41972;48.774;9.282;2023-03-23T00:33:04;13.10;62.40
2158;DHT22;41972;48.774;9.282;2023-03-23T00:35:30;13.10;62.10
2158;DHT22;41972;48.774;9.282;2023-03-23T00:37:56;13.10;61.20
2158;DHT22;41972;48.774;9.282;2023-03-23T00:40:24;13.00;60.70
2158;DHT22;41972;48.774;9.282;2023-03-23T00:42:50;12.90;63.00
2158;DHT22;41972;48.774;9.282;2023-03-23T00:45:15;12.90;62.20
2158;DHT22;41972;48.774;9.282;2023-03-23T00:47:41;12.90;63.70
2158;DHT22;41972;48.774;9.282;2023-03-23T00:50:12;12.70;64.70
2158;DHT22;41972;48.774;9.282;2023-03-23T00:52:40;12.60;66.30
2158;DHT22;41972;48.774;9.282;2023-03-23T00:55:06;12.30;66.40
2158;DHT22;41972;48.774;9.282;2023-03-23T00:57:32;12.20;67.00
2158;DHT22;41972;48.774;9.282;2023-03-23T00:59:57;12.20;67.30
2158;DHT22;41972;48.774;9.282;2023-03-23T01:02:23;12.10;67.00
2158;DHT22;41972;48.774;9.282;2023-03-23T01:04:52;12.20;67.40
2158;DHT22;41972;48.774;9.282;2023-03-23T01:07:21;12.20;67.60
2158;DHT22;41972;48.774;9.282;2023-03-23T01:09:48;12.30;67.80
2158;DHT22;41972;48.774;9.282;2023-03-23T01:12:15;12.40;67.70
2158;DHT22;41972;48.774;9.282;2023-03-23T01:14:41;12.40;67.50
2158;DHT22;41972;48.774;9.282;2023-03-23T01:17:07;12.40;66.80
2158;DHT22;41972;48.774;9.282;2023-03-23T01:19:33;12.50;68.50
2158;DHT22;41972;48.774;9.282;2023-03-23T01:21:58;12.50;67.40
2158;DHT22;41972;48.774;9.282;2023-03-23T01:24:24;12.50;66.70
2158;DHT22;41972;48.774;9.282;2023-03-23T01:26:50;12.60;66.20
2158;DHT22;41972;48.774;9.282;2023-03-23T01:29:15;12.50;70.60
2158;DHT22;41972;48.774;9.282;2023-03-23T01:31:41;12.40;67.60
2158;DHT22;41972;48.774;9.282;2023-03-23T01:34:08;12.50;67.60
2158;DHT22;41972;48.774;9.282;2023-03-23T01:36:33;12.60;65.50
2158;DHT22;41972;48.774;9.282;2023-03-23T01:39:00;12.50;66.80
2158;DHT22;41972;48.774;9.282;2023-03-23T01:41:28;12.60;65.50
2158;DHT22;41972;48.774;9.282;2023-03-23T01:46:34;12.70;64.60
2158;DHT22;41972;48.774;9.282;2023-03-23T01:49:24;12.40;67.20
2158;DHT22;41972;48.774;9.282;2023-03-23T01:52:19;12.20;68.50
2158;DHT22;41972;48.774;9.282;2023-03-23T01:54:44;12.10;69.30
2158;DHT22;41972;48.774;9.282;2023-03-23T01:57:19;12.10;69.30
2158;DHT22;41972;48.774;9.282;2023-03-23T01:59:50;12.20;69.50
2158;DHT22;41972;48.774;9.282;2023-03-23T02:02:20;12.20;68.30
2158;DHT22;41972;48.774;9.282;2023-03-23T02:04:46;12.40;68.80
2158;DHT22;41972;48.774;9.282;2023-03-23T02:07:14;12.20;70.00
2158;DHT22;41972;48.774;9.282;2023-03-23T02:09:40;12.10;70.00
2158;DHT22;41972;48.774;9.282;2023-03-23T02:12:06;12.20;71.30
2158;DHT22;41972;48.774;9.282;2023-03-23T02:14:31;12.20;72.50
2158;DHT22;41972;48.774;9.282;2023-03-23T02:17:10;12.10;72.10
2158;DHT22;41972;48.774;9.282;2023-03-23T02:23:14;12.20;70.90
2158;DHT22;41972;48.774;9.282;2023-03-23T02:25:52;12.40;69.30
2158;DHT22;41972;48.774;9.282;2023-03-23T02:29:29;12.40;69.20
2158;DHT22;41972;48.774;9.282;2023-03-23T02:32:04;12.40;70.60
2158;DHT22;41972;48.774;9.282;2023-03-23T02:34:47;12.50;70.30
2158;DHT22;41972;48.774;9.282;2023-03-23T02:39:55;12.50;69.10
2158;DHT22;41972;48.774;9.282;2023-03-23T02:42:27;12.60;69.70
2158;DHT22;41972;48.774;9.282;2023-03-23T02:44:53;12.70;68.40
2158;DHT22;41972;48.774;9.282;2023-03-23T02:47:25;12.70;69.80
2158;DHT22;41972;48.774;9.282;2023-03-23T02:49:54;12.80;68.70
2158;DHT22;41972;48.774;9.282;2023-03-23T02:52:23;12.90;69.10
2158;DHT22;41972;48.774;9.282;2023-03-23T02:54:51;13.00;68.80
2158;DHT22;41972;48.774;9.282;2023-03-23T02:57:18;12.90;70.00
2158;DHT22;41972;48.774;9.282;2023-03-23T02:59:43;12.80;70.00
2158;DHT22;41972;48.774;9.282;2023-03-23T03:02:16;12.70;69.50
2158;DHT22;41972;48.774;9.282;2023-03-23T03:05:01;12.80;68.10
2158;DHT22;41972;48.774;9.282;2023-03-23T03:10:25;12.60;68.10
2158;DHT22;41972;48.774;9.282;2023-03-23T03:13:30;12.60;68.20
2158;DHT22;41972;48.774;9.282;2023-03-23T03:19:26;12.40;69.30
2158;DHT22;41972;48.774;9.282;2023-03-23T03:21:54;12.40;68.70
2158;DHT22;41972;48.774;9.282;2023-03-23T03:24:24;12.40;68.80
2158;DHT22;41972;48.774;9.282;2023-03-23T03:26:52;12.40;69.20
2158;DHT22;41972;48.774;9.282;2023-03-23T03:29:22;12.40;70.10
2158;DHT22;41972;48.774;9.282;2023-03-23T03:31:49;12.40;71.00
2158;DHT22;41972;48.774;9.282;2023-03-23T03:34:15;12.30;71.90
2158;DHT22;41972;48.774;9.282;2023-03-23T03:36:44;12.20;71.70
2158;DHT22;41972;48.774;9.282;2023-03-23T03:39:12;12.30;70.90
2158;DHT22;41972;48.774;9.282;2023-03-23T03:41:38;12.40;70.30
2158;DHT22;41972;48.774;9.282;2023-03-23T03:44:05;12.50;70.00
2158;DHT22;41972;48.774;9.282;2023-03-23T03:46:35;12.50;71.10
2158;DHT22;41972;48.774;9.282;2023-03-23T03:49:02;12.60;69.10
2158;DHT22;41972;48.774;9.282;2023-03-23T03:51:29;12.70;70.10
2158;DHT22;41972;48.774;9.282;2023-03-23T03:53:56;12.80;69.00
2158;DHT22;41972;48.774;9.282;2023-03-23T03:56:22;12.90;70.80
2158;DHT22;41972;48.774;9.282;2023-03-23T03:58:49;12.80;70.20
2158;DHT22;41972;48.774;9.282;2023-03-23T04:01:16;12.70;71.50
2158;DHT22;41972;48.774;9.282;2023-03-23T04:03:42;12.70;72.50
2158;DHT22;41972;48.774;9.282;2023-03-23T04:06:08;12.80;70.80
2158;DHT22;41972;48.774;9.282;2023-03-23T04:08:35;12.80;72.10
2158;DHT22;41972;48.774;9.282;2023-03-23T04:11:03;13.00;71.10
2158;DHT22;41972;48.774;9.282;2023-03-23T04:13:29;13.00;70.70
2158;DHT22;41972;48.774;9.282;2023-03-23T04:15:55;13.10;69.10
2158;DHT22;41972;48.774;9.282;2023-03-23T04:18:21;13.20;69.70
2158;DHT22;41972;48.774;9.282;2023-03-23T04:20:48;13.30;68.50
2158;DHT22;41972;48.774;9.282;2023-03-23T04:23:18;13.40;66.50
2158;DHT22;41972;48.774;9.282;2023-03-23T04:25:49;13.50;68.50
2158;DHT22;41972;48.774;9.282;2023-03-23T04:28:16;13.50;68.90
2158;DHT22;41972;48.774;9.282;2023-03-23T04:30:48;13.50;68.80
2158;DHT22;41972;48.774;9.282;2023-03-23T04:33:18;13.30;68.10
2158;DHT22;41972;48.774;9.282;2023-03-23T04:35:45;13.30;72.00
2158;DHT22;41972;48.774;9.282;2023-03-23T04:38:12;13.30;72.00
2158;DHT22;41972;48.774;9.282;2023-03-23T04:40:39;13.30;72.70
2158;DHT22;41972;48.774;9.282;2023-03-23T04:43:05;13.20;72.40
2158;DHT22;41972;48.774;9.282;2023-03-23T04:45:33;13.00;72.60
2158;DHT22;41972;48.774;9.282;2023-03-23T04:47:59;13.10;73.40
2158;DHT22;41972;48.774;9.282;2023-03-23T04:50:28;13.10;74.10
2158;DHT22;41972;48.774;9.282;2023-03-23T04:52:57;13.00;73.80
2158;DHT22;41972;48.774;9.282;2023-03-23T04:55:25;13.10;75.00
2158;DHT22;41972;48.774;9.282;2023-03-23T04:57:51;13.10;74.00
2158;DHT22;41972;48.774;9.282;2023-03-23T05:00:17;13.00;77.50
2158;DHT22;41972;48.774;9.282;2023-03-23T05:02:44;13.00;78.00
2158;DHT22;41972;48.774;9.282;2023-03-23T05:05:13;12.80;74.40
2158;DHT22;41972;48.774;9.282;2023-03-23T05:07:38;12.80;75.10
2158;DHT22;41972;48.774;9.282;2023-03-23T05:10:05;12.90;75.70
2158;DHT22;41972;48.774;9.282;2023-03-23T05:12:33;13.00;74.70
2158;DHT22;41972;48.774;9.282;2023-03-23T05:14:58;13.00;76.80
2158;DHT22;41972;48.774;9.282;2023-03-23T05:17:24;13.00;74.90
2158;DHT22;41972;48.774;9.282;2023-03-23T05:19:50;13.10;75.00
2158;DHT22;41972;48.774;9.282;2023-03-23T05:22:17;13.00;76.40
2158;DHT22;41972;48.774;9.282;2023-03-23T05:24:42;13.00;76.30
2158;DHT22;41972;48.774;9.282;2023-03-23T05:27:09;13.00;76.80
2158;DHT22;41972;48.774;9.282;2023-03-23T05:29:35;12.90;77.70
2158;DHT22;41972;48.774;9.282;2023-03-23T05:32:04;12.70;77.60
2158;DHT22;41972;48.774;9.282;2023-03-23T05:34:31;12.50;79.20
2158;DHT22;41972;48.774;9.282;2023-03-23T05:37:01;12.50;79.40
2158;DHT22;41972;48.774;9.282;2023-03-23T05:39:27;12.40;79.70
2158;DHT22;41972;48.774;9.282;2023-03-23T05:41:53;12.50;81.30
2158;DHT22;41972;48.774;9.282;2023-03-23T05:44:19;12.40;79.70
2158;DHT22;41972;48.774;9.282;2023-03-23T05:46:45;12.50;80.00
2158;DHT22;41972;48.774;9.282;2023-03-23T05:49:11;12.50;78.60
2158;DHT22;41972;48.774;9.282;2023-03-23T05:51:37;12.50;80.40
2158;DHT22;41972;48.774;9.282;2023-03-23T05:54:02;12.30;82.60
2158;DHT22;41972;48.774;9.282;2023-03-23T05:56:29;12.30;85.00
2158;DHT22;41972;48.774;9.282;2023-03-23T05:58:56;12.40;82.70
2158;DHT22;41972;48.774;9.282;2023-03-23T06:01:21;12.30;88.30
2158;DHT22;41972;48.774;9.282;2023-03-23T06:03:48;12.50;89.70
2158;DHT22;41972;48.774;9.282;2023-03-23T06:06:20;12.50;85.90
2158;DHT22;41972;48.774;9.282;2023-03-23T06:08:46;12.80;86.70
2158;DHT22;41972;48.774;9.282;2023-03-23T06:11:13;12.90;85.90
2158;DHT22;41972;48.774;9.282;2023-03-23T06:13:39;13.00;83.80
2158;DHT22;41972;48.774;9.282;2023-03-23T06:16:05;13.10;84.00
2158;DHT22;41972;48.774;9.282;2023-03-23T06:18:31;13.30;83.60
2158;DHT22;41972;48.774;9.282;2023-03-23T06:20:59;13.40;84.50
2158;DHT22;41972;48.774;9.282;2023-03-23T06:23:26;13.60;84.40
2158;DHT22;41972;48.774;9.282;2023-03-23T06:25:59;13.70;84.00
2158;DHT22;41972;48.774;9.282;2023-03-23T06:28:26;13.90;84.10
2158;DHT22;41972;48.774;9.282;2023-03-23T06:30:52;13.90;82.50
2158;DHT22;41972;48.774;9.282;2023-03-23T06:33:18;13.90;84.50
2158;DHT22;41972;48.774;9.282;2023-03-23T06:35:44;14.10;83.70
2158;DHT22;41972;48.774;9.282;2023-03-23T06:38:09;13.90;88.10
2158;DHT22;41972;48.774;9.282;2023-03-23T06:40:35;13.90;88.70
2158;DHT22;41972;48.774;9.282;2023-03-23T06:43:02;13.70;86.10
2158;DHT22;41972;48.774;9.282;2023-03-23T06:45:28;13.80;83.80
2158;DHT22;41972;48.774;9.282;2023-03-23T06:47:53;13.80;83.90
2158;DHT22;41972;48.774;9.282;2023-03-23T06:50:19;13.70;85.20
2158;DHT22;41972;48.774;9.282;2023-03-23T06:52:46;13.60;85.90
2158;DHT22;41972;48.774;9.282;2023-03-23T06:55:12;13.20;86.50
2158;DHT22;41972;48.774;9.282;2023-03-23T06:57:38;13.10;84.00
2158;DHT22;41972;48.774;9.282;2023-03-23T07:00:04;13.20;82.80
2158;DHT22;41972;48.774;9.282;2023-03-23T07:02:33;13.40;81.10
2158;DHT22;41972;48.774;9.282;2023-03-23T07:04:58;13.60;81.70
2158;DHT22;41972;48.774;9.282;2023-03-23T07:07:24;14.10;79.10
2158;DHT22;41972;48.774;9.282;2023-03-23T07:09:50;14.60;81.60
2158;DHT22;41972;48.774;9.282;2023-03-23T07:12:15;15.00;79.40
2158;DHT22;41972;48.774;9.282;2023-03-23T07:14:41;15.40;77.80
2158;DHT22;41972;48.774;9.282;2023-03-23T07:17:07;15.40;77.20
2158;DHT22;41972;48.774;9.282;2023-03-23T07:19:33;15.30;75.10
2158;DHT22;41972;48.774;9.282;2023-03-23T07:21:58;15.40;76.30
2158;DHT22;41972;48.774;9.282;2023-03-23T07:24:25;15.40;75.40
2158;DHT22;41972;48.774;9.282;2023-03-23T07:26:51;15.60;74.80
2158;DHT22;41972;48.774;9.282;2023-03-23T07:29:17;15.30;71.70
2158;DHT22;41972;48.774;9.282;2023-03-23T07:31:42;15.20;72.50
2158;DHT22;41972;48.774;9.282;2023-03-23T07:34:08;14.70;70.80
2158;DHT22;41972;48.774;9.282;2023-03-23T07:36:34;14.70;73.10
2158;DHT22;41972;48.774;9.282;2023-03-23T07:39:03;14.70;73.10
2158;DHT22;41972;48.774;9.282;2023-03-23T07:41:31;14.60;73.90
2158;DHT22;41972;48.774;9.282;2023-03-23T07:43:56;14.50;75.00
2158;DHT22;41972;48.774;9.282;2023-03-23T07:46:22;14.60;74.40
2158;DHT22;41972;48.774;9.282;2023-03-23T07:48:48;14.60;76.80
2158;DHT22;41972;48.774;9.282;2023-03-23T07:51:14;14.70;76.40
2158;DHT22;41972;48.774;9.282;2023-03-23T07:53:42;14.90;74.80
2158;DHT22;41972;48.774;9.282;2023-03-23T07:56:11;15.20;75.30
2158;DHT22;41972;48.774;9.282;2023-03-23T07:58:37;15.30;71.80
2158;DHT22;41972;48.774;9.282;2023-03-23T08:01:03;15.30;73.50
2158;DHT22;41972;48.774;9.282;2023-03-23T08:03:29;15.50;73.60
2158;DHT22;41972;48.774;9.282;2023-03-23T08:05:58;15.70;73.20
2158;DHT22;41972;48.774;9.282;2023-03-23T08:08:24;15.70;71.20
2158;DHT22;41972;48.774;9.282;2023-03-23T08:10:50;15.90;73.20
2158;DHT22;41972;48.774;9.282;2023-03-23T08:13:16;16.20;72.90
2158;DHT22;41972;48.774;9.282;2023-03-23T08:15:41;16.40;70.50
2158;DHT22;41972;48.774;9.282;2023-03-23T08:18:07;16.10;73.10
2158;DHT22;41972;48.774;9.282;2023-03-23T08:20:35;16.20;71.40
2158;DHT22;41972;48.774;9.282;2023-03-23T08:23:01;16.20;70.70
2158;DHT22;41972;48.774;9.282;2023-03-23T08:25:28;16.10;72.60
2158;DHT22;41972;48.774;9.282;2023-03-23T08:27:56;16.20;72.20
2158;DHT22;41972;48.774;9.282;2023-03-23T08:30:23;16.10;71.40
2158;DHT22;41972;48.774;9.282;2023-03-23T08:32:50;16.40;72.20
2158;DHT22;41972;48.774;9.282;2023-03-23T08:35:17;16.70;71.00
2158;DHT22;41972;48.774;9.282;2023-03-23T08:37:43;17.00;72.70
2158;DHT22;41972;48.774;9.282;2023-03-23T08:40:11;17.00;70.30
2158;DHT22;41972;48.774;9.282;2023-03-23T08:42:38;16.90;71.20
2158;DHT22;41972;48.774;9.282;2023-03-23T08:45:10;15.90;71.30
2158;DHT22;41972;48.774;9.282;2023-03-23T08:47:36;15.70;72.60
2158;DHT22;41972;48.774;9.282;2023-03-23T08:50:04;16.20;72.70
2158;DHT22;41972;48.774;9.282;2023-03-23T08:52:29;16.20;72.90
2158;DHT22;41972;48.774;9.282;2023-03-23T08:54:56;16.20;73.60
2158;DHT22;41972;48.774;9.282;2023-03-23T08:57:22;15.90;73.80
2158;DHT22;41972;48.774;9.282;2023-03-23T08:59:48;15.90;75.20
2158;DHT22;41972;48.774;9.282;2023-03-23T09:02:14;15.60;75.60
2158;DHT22;41972;48.774;9.282;2023-03-23T09:04:40;15.50;77.00
2158;DHT22;41972;48.774;9.282;2023-03-23T09:07:11;15.30;77.20
2158;DHT22;41972;48.774;9.282;2023-03-23T09:09:38;15.60;78.70
2158;DHT22;41972;48.774;9.282;2023-03-23T09:12:08;15.60;78.10
2158;DHT22;41972;48.774;9.282;2023-03-23T09:14:34;15.90;77.50
2158;DHT22;41972;48.774;9.282;2023-03-23T09:17:01;16.10;77.20
2158;DHT22;41972;48.774;9.282;2023-03-23T09:19:28;16.00;77.60
2158;DHT22;41972;48.774;9.282;2023-03-23T09:21:54;16.00;77.50
2158;DHT22;41972;48.774;9.282;2023-03-23T09:24:19;16.30;76.90
2158;DHT22;41972;48.774;9.282;2023-03-23T09:26:45;16.30;77.50
2158;DHT22;41972;48.774;9.282;2023-03-23T09:29:12;16.50;78.40
2158;DHT22;41972;48.774;9.282;2023-03-23T09:31:38;16.70;76.60
2158;DHT22;41972;48.774;9.282;2023-03-23T09:34:06;16.90;76.60
2158;DHT22;41972;48.774;9.282;2023-03-23T09:36:31;16.40;76.90
2158;DHT22;41972;48.774;9.282;2023-03-23T09:38:57;16.50;76.50
2158;DHT22;41972;48.774;9.282;2023-03-23T09:47:20;16.40;76.20
2158;DHT22;41972;48.774;9.282;2023-03-23T09:49:56;16.10;76.30
2158;DHT22;41972;48.774;9.282;2023-03-23T09:52:30;16.10;76.60
2158;DHT22;41972;48.774;9.282;2023-03-23T09:54:57;16.00;77.50
2158;DHT22;41972;48.774;9.282;2023-03-23T09:57:34;16.10;77.30
2158;DHT22;41972;48.774;9.282;2023-03-23T10:00:20;16.50;76.20
2158;DHT22;41972;48.774;9.282;2023-03-23T10:03:14;16.20;75.30
2158;DHT22;41972;48.774;9.282;2023-03-23T10:05:48;16.10;75.80
2158;DHT22;41972;48.774;9.282;2023-03-23T10:08:31;16.20;78.10
2158;DHT22;41972;48.774;9.282;2023-03-23T10:13:44;16.20;77.60
2158;DHT22;41972;48.774;9.282;2023-03-23T10:16:26;16.10;77.00
2158;DHT22;41972;48.774;9.282;2023-03-23T10:19:20;16.00;77.90
2158;DHT22;41972;48.774;9.282;2023-03-23T10:21:52;15.90;79.60
2158;DHT22;41972;48.774;9.282;2023-03-23T10:24:25;15.90;79.90
2158;DHT22;41972;48.774;9.282;2023-03-23T10:29:57;17.00;77.00
2158;DHT22;41972;48.774;9.282;2023-03-23T10:32:50;17.50;78.30
2158;DHT22;41972;48.774;9.282;2023-03-23T10:35:29;17.60;76.60
2158;DHT22;41972;48.774;9.282;2023-03-23T10:38:00;17.80;76.00
2158;DHT22;41972;48.774;9.282;2023-03-23T10:40:29;17.90;76.50
2158;DHT22;41972;48.774;9.282;2023-03-23T10:42:57;17.60;75.40
2158;DHT22;41972;48.774;9.282;2023-03-23T10:45:30;17.40;77.10
2158;DHT22;41972;48.774;9.282;2023-03-23T10:48:11;18.00;77.00
2158;DHT22;41972;48.774;9.282;2023-03-23T10:50:38;17.90;76.60
2158;DHT22;41972;48.774;9.282;2023-03-23T10:53:33;17.70;76.40
2158;DHT22;41972;48.774;9.282;2023-03-23T10:55:58;17.80;75.90
2158;DHT22;41972;48.774;9.282;2023-03-23T10:58:30;17.60;74.60
2158;DHT22;41972;48.774;9.282;2023-03-23T11:01:01;17.80;77.00
2158;DHT22;41972;48.774;9.282;2023-03-23T11:06:05;17.80;77.50
2158;DHT22;41972;48.774;9.282;2023-03-23T11:11:40;18.00;77.90
2158;DHT22;41972;48.774;9.282;2023-03-23T11:16:43;17.50;74.40
2158;DHT22;41972;48.774;9.282;2023-03-23T11:19:25;17.40;75.30
2158;DHT22;41972;48.774;9.282;2023-03-23T11:21:53;17.80;76.10
2158;DHT22;41972;48.774;9.282;2023-03-23T11:24:22;17.20;73.20
2158;DHT22;41972;48.774;9.282;2023-03-23T11:27:08;17.40;76.10
2158;DHT22;41972;48.774;9.282;2023-03-23T11:29:36;17.60;75.60
2158;DHT22;41972;48.774;9.282;2023-03-23T11:32:11;17.90;76.30
2158;DHT22;41972;48.774;9.282;2023-03-23T11:34:45;18.00;77.20
2158;DHT22;41972;48.774;9.282;2023-03-23T11:37:40;18.10;75.80
2158;DHT22;41972;48.774;9.282;2023-03-23T11:42:43;17.40;77.90
2158;DHT22;41972;48.774;9.282;2023-03-23T11:45:35;17.70;79.40
2158;DHT22;41972;48.774;9.282;2023-03-23T11:48:15;17.50;81.30
2158;DHT22;41972;48.774;9.282;2023-03-23T11:58:54;17.90;78.90
2158;DHT22;41972;48.774;9.282;2023-03-23T12:12:41;17.20;80.00
2158;DHT22;41972;48.774;9.282;2023-03-23T12:23:56;17.60;80.10
2158;DHT22;41972;48.774;9.282;2023-03-23T12:26:29;18.10;80.80
2158;DHT22;41972;48.774;9.282;2023-03-23T12:29:13;17.90;81.70
2158;DHT22;41972;48.774;9.282;2023-03-23T12:32:03;18.20;78.70
2158;DHT22;41972;48.774;9.282;2023-03-23T12:34:41;18.70;76.70
2158;DHT22;41972;48.774;9.282;2023-03-23T12:46:21;17.80;76.00
2158;DHT22;41972;48.774;9.282;2023-03-23T12:51:31;18.10;74.80
2158;DHT22;41972;48.774;9.282;2023-03-23T12:56:53;18.20;72.70
2158;DHT22;41972;48.774;9.282;2023-03-23T13:04:46;18.90;69.60
2158;DHT22;41972;48.774;9.282;2023-03-23T13:07:17;19.30;69.30
2158;DHT22;41972;48.774;9.282;2023-03-23T13:12:16;19.00;70.50
2158;DHT22;41972;48.774;9.282;2023-03-23T13:15:03;19.50;70.50
2158;DHT22;41972;48.774;9.282;2023-03-23T13:25:45;18.80;69.70
2158;DHT22;41972;48.774;9.282;2023-03-23T13:28:21;18.30;69.20
2158;DHT22;41972;48.774;9.282;2023-03-23T13:31:15;18.80;69.70
2158;DHT22;41972;48.774;9.282;2023-03-23T13:33:51;19.00;69.10
2158;DHT22;41972;48.774;9.282;2023-03-23T13:36:29;19.00;70.60
2158;DHT22;41972;48.774;9.282;2023-03-23T13:38:56;19.00;69.80
2158;DHT22;41972;48.774;9.282;2023-03-23T13:41:24;18.90;67.60
2158;DHT22;41972;48.774;9.282;2023-03-23T13:43:51;18.30;69.30
2158;DHT22;41972;48.774;9.282;2023-03-23T13:46:27;17.90;66.10
2158;DHT22;41972;48.774;9.282;2023-03-23T13:49:13;18.10;69.60
2158;DHT22;41972;48.774;9.282;2023-03-23T14:01:52;18.20;67.70
2158;DHT22;41972;48.774;9.282;2023-03-23T14:04:19;18.30;67.60
2158;DHT22;41972;48.774;9.282;2023-03-23T14:06:47;18.20;67.60
2158;DHT22;41972;48.774;9.282;2023-03-23T14:09:18;18.00;69.30
2158;DHT22;41972;48.774;9.282;2023-03-23T14:11:55;18.00;68.50
2158;DHT22;41972;48.774;9.282;2023-03-23T14:14:28;18.10;68.00
2158;DHT22;41972;48.774;9.282;2023-03-23T14:17:06;17.60;70.30
2158;DHT22;41972;48.774;9.282;2023-03-23T14:19:32;17.30;68.30
2158;DHT22;41972;48.774;9.282;2023-03-23T14:21:59;17.30;67.90
2158;DHT22;41972;48.774;9.282;2023-03-23T14:24:30;17.20;68.00
2158;DHT22;41972;48.774;9.282;2023-03-23T14:27:23;17.10;67.50
2158;DHT22;41972;48.774;9.282;2023-03-23T14:30:03;17.40;68.90
2158;DHT22;41972;48.774;9.282;2023-03-23T14:32:31;17.20;70.00
2158;DHT22;41972;48.774;9.282;2023-03-23T14:34:58;17.40;69.00
2158;DHT22;41972;48.774;9.282;2023-03-23T14:37:25;17.30;67.60
2158;DHT22;41972;48.774;9.282;2023-03-23T14:39:53;17.30;66.10
2158;DHT22;41972;48.774;9.282;2023-03-23T14:42:28;17.20;64.00
2158;DHT22;41972;48.774;9.282;2023-03-23T14:44:54;17.20;63.70
2158;DHT22;41972;48.774;9.282;2023-03-23T14:47:25;17.20;63.20
2158;DHT22;41972;48.774;9.282;2023-03-23T14:49:54;17.30;63.00
2158;DHT22;41972;48.774;9.282;2023-03-23T14:52:23;17.30;64.20
2158;DHT22;41972;48.774;9.282;2023-03-23T14:54:50;17.50;63.90
2158;DHT22;41972;48.774;9.282;2023-03-23T14:57:28;17.50;62.20
2158;DHT22;41972;48.774;9.282;2023-03-23T14:59:54;17.40;62.80
2158;DHT22;41972;48.774;9.282;2023-03-23T15:02:32;17.40;62.70
2158;DHT22;41972;48.774;9.282;2023-03-23T15:05:09;17.40;63.20
2158;DHT22;41972;48.774;9.282;2023-03-23T15:07:39;17.30;61.00
2158;DHT22;41972;48.774;9.282;2023-03-23T15:10:12;17.40;63.20
2158;DHT22;41972;48.774;9.282;2023-03-23T15:12:44;17.50;62.50
2158;DHT22;41972;48.774;9.282;2023-03-23T15:15:27;17.40;63.60
2158;DHT22;41972;48.774;9.282;2023-03-23T15:17:54;17.30;61.00
2158;DHT22;41972;48.774;9.282;2023-03-23T15:20:31;17.20;61.60
2158;DHT22;41972;48.774;9.282;2023-03-23T15:23:05;17.20;62.00
2158;DHT22;41972;48.774;9.282;2023-03-23T15:25:33;17.30;60.70
2158;DHT22;41972;48.774;9.282;2023-03-23T15:28:20;17.30;59.80
2158;DHT22;41972;48.774;9.282;2023-03-23T15:30:54;17.20;58.70
2158;DHT22;41972;48.774;9.282;2023-03-23T15:33:21;17.30;59.50
2158;DHT22;41972;48.774;9.282;2023-03-23T15:35:53;17.30;61.40
2158;DHT22;41972;48.774;9.282;2023-03-23T15:38:29;17.30;59.60
2158;DHT22;41972;48.774;9.282;2023-03-23T15:40:57;17.30;58.40
2158;DHT22;41972;48.774;9.282;2023-03-23T15:43:27;17.30;58.30
2158;DHT22;41972;48.774;9.282;2023-03-23T15:45:58;17.30;58.60
2158;DHT22;41972;48.774;9.282;2023-03-23T15:48:46;17.20;60.40
2158;DHT22;41972;48.774;9.282;2023-03-23T15:51:13;17.20;59.80
2158;DHT22;41972;48.774;9.282;2023-03-23T15:53:39;17.20;60.70
2158;DHT22;41972;48.774;9.282;2023-03-23T15:56:07;17.00;60.50
2158;DHT22;41972;48.774;9.282;2023-03-23T15:58:34;16.90;59.60
2158;DHT22;41972;48.774;9.282;2023-03-23T16:01:04;17.00;60.10
2158;DHT22;41972;48.774;9.282;2023-03-23T16:03:55;16.90;59.20
2158;DHT22;41972;48.774;9.282;2023-03-23T16:06:24;16.90;60.20
2158;DHT22;41972;48.774;9.282;2023-03-23T16:08:50;16.80;58.50
2158;DHT22;41972;48.774;9.282;2023-03-23T16:11:18;16.90;59.50
2158;DHT22;41972;48.774;9.282;2023-03-23T16:13:44;16.90;59.30
2158;DHT22;41972;48.774;9.282;2023-03-23T16:16:18;16.80;58.30
2158;DHT22;41972;48.774;9.282;2023-03-23T16:18:45;16.70;60.00
2158;DHT22;41972;48.774;9.282;2023-03-23T16:21:10;16.60;60.40
2158;DHT22;41972;48.774;9.282;2023-03-23T16:23:36;16.50;59.20
2158;DHT22;41972;48.774;9.282;2023-03-23T16:26:02;16.60;59.80
2158;DHT22;41972;48.774;9.282;2023-03-23T16:28:27;16.50;59.10
2158;DHT22;41972;48.774;9.282;2023-03-23T16:30:53;16.30;59.10
2158;DHT22;41972;48.774;9.282;2023-03-23T16:33:18;16.30;59.30
2158;DHT22;41972;48.774;9.282;2023-03-23T16:35:44;16.30;59.80
2158;DHT22;41972;48.774;9.282;2023-03-23T16:38:12;16.30;60.00
2158;DHT22;41972;48.774;9.282;2023-03-23T16:40:39;16.30;60.20
2158;DHT22;41972;48.774;9.282;2023-03-23T16:43:05;16.30;60.10
2158;DHT22;41972;48.774;9.282;2023-03-23T16:45:31;16.20;61.20
2158;DHT22;41972;48.774;9.282;2023-03-23T16:47:56;16.20;60.90
2158;DHT22;41972;48.774;9.282;2023-03-23T16:50:27;16.10;60.90
2158;DHT22;41972;48.774;9.282;2023-03-23T16:52:53;16.20;61.20
2158;DHT22;41972;48.774;9.282;2023-03-23T16:55:19;16.20;61.20
2158;DHT22;41972;48.774;9.282;2023-03-23T16:57:44;16.20;61.70
2158;DHT22;41972;48.774;9.282;2023-03-23T17:00:15;16.20;63.40
2158;DHT22;41972;48.774;9.282;2023-03-23T17:02:45;16.20;62.60
2158;DHT22;41972;48.774;9.282;2023-03-23T17:05:12;16.00;62.20
2158;DHT22;41972;48.774;9.282;2023-03-23T17:07:39;16.00;63.20
2158;DHT22;41972;48.774;9.282;2023-03-23T17:10:07;15.90;64.30
2158;DHT22;41972;48.774;9.282;2023-03-23T17:12:34;15.80;63.90
2158;DHT22;41972;48.774;9.282;2023-03-23T17:15:00;15.80;63.10
2158;DHT22;41972;48.774;9.282;2023-03-23T17:17:25;15.80;63.70
2158;DHT22;41972;48.774;9.282;2023-03-23T17:19:51;15.90;64.30
2158;DHT22;41972;48.774;9.282;2023-03-23T17:22:17;15.80;62.90
2158;DHT22;41972;48.774;9.282;2023-03-23T17:24:43;15.90;63.10
2158;DHT22;41972;48.774;9.282;2023-03-23T17:27:10;15.90;63.60
2158;DHT22;41972;48.774;9.282;2023-03-23T17:29:36;15.80;64.60
2158;DHT22;41972;48.774;9.282;2023-03-23T17:32:02;15.90;64.60
2158;DHT22;41972;48.774;9.282;2023-03-23T17:34:27;15.80;64.30
2158;DHT22;41972;48.774;9.282;2023-03-23T17:36:53;15.80;65.80
2158;DHT22;41972;48.774;9.282;2023-03-23T17:39:18;15.70;65.10
2158;DHT22;41972;48.774;9.282;2023-03-23T17:41:44;15.70;65.90
2158;DHT22;41972;48.774;9.282;2023-03-23T17:44:09;15.70;65.90
2158;DHT22;41972;48.774;9.282;2023-03-23T17:46:35;15.70;66.30